createdAt,value
2023-09-18T00:01:27.231Z,101116.72
2023-09-18T00:08:09.742Z,101099.13
2023-09-18T00:14:52.297Z,101105.31
2023-09-18T00:21:35.746Z,101108.97
2023-09-18T00:28:17.950Z,101106.53
2023-09-18T00:35:00.552Z,101105.06
2023-09-18T00:41:43.818Z,101100.88
2023-09-18T00:48:27.180Z,101085.81
2023-09-18T00:55:11.266Z,101087.63
2023-09-18T01:01:54.219Z,101086.69
2023-09-18T01:08:37.985Z,101079.78
2023-09-18T01:15:46.415Z,101075.50
2023-09-18T01:22:31.929Z,101069.38
2023-09-18T01:29:14.702Z,101075.88
2023-09-18T01:35:58.183Z,101068.06
2023-09-18T01:42:41.288Z,101064.66
2023-09-18T01:49:36.262Z,101054.19
2023-09-18T01:56:18.450Z,101048.38
2023-09-18T02:03:18.183Z,101049.63
2023-09-18T02:10:04.397Z,101049.06
2023-09-18T02:16:46.857Z,101037.72
2023-09-18T02:23:29.481Z,101037.81
2023-09-18T02:30:12.443Z,101033.59
2023-09-18T02:36:55.093Z,101030.22
2023-09-18T02:43:40.233Z,101030.22
2023-09-18T02:50:22.467Z,101028.53
2023-09-18T02:57:05.255Z,101025.34
2023-09-18T03:03:47.747Z,101019.47
2023-09-18T03:10:38.820Z,101014.38
2023-09-18T03:17:21.530Z,101010.22
2023-09-18T03:24:05.294Z,100992.69
2023-09-18T03:30:47.574Z,100996.28
2023-09-18T03:37:30.325Z,100987.59
2023-09-18T03:44:12.886Z,100991.25
2023-09-18T03:50:55.851Z,100992.09
2023-09-18T03:57:40.536Z,100987.00
2023-09-18T04:04:23.248Z,100965.94
2023-09-18T04:11:05.882Z,100968.72
2023-09-18T04:17:49.653Z,100963.66
2023-09-18T04:24:33.117Z,100952.31
2023-09-18T04:31:15.996Z,100930.31
2023-09-18T04:38:00.188Z,100933.78
2023-09-18T04:44:43.310Z,100930.16
2023-09-18T04:51:26.472Z,100920.31
2023-09-18T04:58:08.976Z,100920.28
2023-09-18T05:04:52.162Z,100909.41
2023-09-18T05:11:35.612Z,100918.94
2023-09-18T05:18:18.078Z,100918.59
2023-09-18T05:25:00.507Z,100913.81
2023-09-18T05:31:42.702Z,100914.38
2023-09-18T05:38:24.925Z,100914.94
2023-09-18T05:45:07.806Z,100905.66
2023-09-18T05:51:50.184Z,100903.19
2023-09-18T05:58:36.942Z,100909.47
2023-09-18T06:05:22.517Z,100896.97
2023-09-18T06:12:06.451Z,100901.25
2023-09-18T06:18:48.708Z,100902.00
2023-09-18T06:25:33.728Z,100886.78
2023-09-18T06:32:15.959Z,100887.63
2023-09-18T06:39:06.941Z,100881.25
2023-09-18T06:45:49.735Z,100866.88
2023-09-18T06:52:31.977Z,100861.56
2023-09-18T06:59:14.648Z,100859.63
2023-09-18T07:05:56.972Z,100854.16
2023-09-18T07:12:39.666Z,100843.38
2023-09-18T07:19:21.934Z,100857.41
2023-09-18T07:26:04.729Z,100858.06
2023-09-18T07:32:47.457Z,100872.03
2023-09-18T07:39:31.032Z,100876.16
2023-09-18T07:46:13.833Z,100873.13
2023-09-18T07:52:56.187Z,100857.69
2023-09-18T07:59:40.132Z,100852.31
2023-09-18T08:06:23.653Z,100850.00
2023-09-18T08:13:06.215Z,100835.78
2023-09-18T08:19:54.996Z,100824.06
2023-09-18T08:26:38.122Z,100812.56
2023-09-18T08:33:21.653Z,100817.75
2023-09-18T08:40:10.818Z,100787.28
2023-09-18T08:46:54.094Z,100781.06
2023-09-18T08:53:37.717Z,100788.63
2023-09-18T09:00:20.551Z,100773.91
2023-09-18T09:07:04.223Z,100781.38
2023-09-18T09:13:47.137Z,100770.00
2023-09-18T09:20:30.681Z,100770.09
2023-09-18T09:27:15.367Z,100753.28
2023-09-18T09:33:59.407Z,100723.75
2023-09-18T09:40:44.368Z,100721.69
2023-09-18T09:47:26.868Z,100716.88
2023-09-18T09:54:09.584Z,100716.50
2023-09-18T10:00:55.650Z,100705.25
2023-09-18T10:07:39.709Z,100681.00
2023-09-18T10:14:40.230Z,100670.41
2023-09-18T10:22:02.275Z,100652.22
2023-09-18T10:28:45.575Z,100646.44
2023-09-18T10:35:31.738Z,100636.69
2023-09-18T10:42:18.145Z,100624.09
2023-09-18T10:49:02.130Z,100630.19
2023-09-18T10:55:46.722Z,100625.41
2023-09-18T11:02:29.502Z,100619.75
2023-09-18T11:09:20.516Z,100620.50
2023-09-18T11:16:29.078Z,100612.41
2023-09-18T11:23:35.083Z,100597.00
2023-09-18T11:30:18.661Z,100588.19
2023-09-18T11:37:03.903Z,100591.03
2023-09-18T11:43:51.664Z,100578.50
2023-09-18T11:50:36.567Z,100561.56
2023-09-18T11:57:21.144Z,100556.88
2023-09-18T12:04:12.893Z,100551.63
2023-09-18T12:10:55.946Z,100548.94
2023-09-18T12:17:38.526Z,100528.16
2023-09-18T12:24:28.840Z,100525.59
2023-09-18T12:31:16.240Z,100523.34
2023-09-18T12:38:01.934Z,100516.78
2023-09-18T12:44:44.683Z,100511.97
2023-09-18T12:51:34.584Z,100499.28
2023-09-18T12:58:21.257Z,100496.47
2023-09-18T13:05:05.065Z,100483.84
2023-09-18T13:11:58.495Z,100470.03
2023-09-18T13:18:42.241Z,100469.19
2023-09-18T13:25:27.466Z,100458.91
2023-09-18T13:32:09.888Z,100443.94
2023-09-18T13:38:52.315Z,100430.78
2023-09-18T13:45:38.855Z,100424.06
2023-09-18T13:52:21.917Z,100404.50
2023-09-18T13:59:04.573Z,100401.13
2023-09-18T14:05:47.041Z,100388.53
2023-09-18T14:12:31.262Z,100382.03
2023-09-18T14:19:13.987Z,100370.16
2023-09-18T14:25:56.683Z,100361.19
2023-09-18T14:32:39.768Z,100363.66
2023-09-18T14:39:22.505Z,100361.25
2023-09-18T14:46:09.034Z,100357.56
2023-09-18T14:52:51.294Z,100346.00
2023-09-18T14:59:42.138Z,100338.72
2023-09-18T15:06:26.151Z,100327.53
2023-09-18T15:13:08.337Z,100323.66
2023-09-18T15:19:56.647Z,100315.19
2023-09-18T15:26:39.163Z,100307.34
2023-09-18T15:33:26.530Z,100299.38
2023-09-18T15:40:11.556Z,100289.13
2023-09-18T15:46:53.982Z,100283.81
2023-09-18T15:53:36.728Z,100280.09
2023-09-18T16:00:20.213Z,100285.16
2023-09-18T16:07:02.809Z,100272.69
2023-09-18T16:13:45.325Z,100275.72
2023-09-18T16:20:27.881Z,100263.53
2023-09-18T16:27:13.210Z,100243.53
2023-09-18T16:33:55.937Z,100239.75
2023-09-18T16:40:38.478Z,100233.75
2023-09-18T16:47:23.560Z,100231.81
2023-09-18T16:54:07.092Z,100236.94
2023-09-18T17:00:49.418Z,100222.28
2023-09-18T17:07:32.865Z,100213.88
2023-09-18T17:14:15.735Z,100218.97
2023-09-18T17:20:58.818Z,100225.75
2023-09-18T17:27:41.267Z,100204.00
2023-09-18T17:34:23.618Z,100214.41
2023-09-18T17:41:06.040Z,100219.19
2023-09-18T17:47:48.833Z,100213.31
2023-09-18T17:54:31.317Z,100211.84
2023-09-18T18:01:14.058Z,100205.81
2023-09-18T18:07:56.495Z,100200.66
2023-09-18T18:14:41.549Z,100194.56
2023-09-18T18:21:24.083Z,100192.91
2023-09-18T18:28:06.806Z,100195.56
2023-09-18T18:34:49.251Z,100205.38
2023-09-18T18:41:32.326Z,100206.53
2023-09-18T18:48:14.667Z,100202.31
2023-09-18T18:54:57.105Z,100195.25
2023-09-18T19:01:39.466Z,100191.72
2023-09-18T19:08:21.830Z,100188.22
2023-09-18T19:15:07.368Z,100179.31
2023-09-18T19:21:55.968Z,100174.81
2023-09-18T19:28:38.872Z,100165.66
2023-09-18T19:35:21.273Z,100157.47
2023-09-18T19:42:04.165Z,100150.03
2023-09-18T19:48:47.200Z,100141.47
2023-09-18T19:55:30.365Z,100137.72
2023-09-18T20:02:18.136Z,100124.75
2023-09-18T20:09:02.150Z,100131.34
2023-09-18T20:15:44.413Z,100120.25
2023-09-18T20:22:27.899Z,100112.66
2023-09-18T20:29:10.113Z,100112.31
2023-09-18T20:36:00.051Z,100109.97
2023-09-18T20:42:42.762Z,100104.00
2023-09-18T20:49:27.499Z,100096.31
2023-09-18T20:56:09.704Z,100094.84
2023-09-18T21:02:52.876Z,100090.84
2023-09-18T21:09:35.190Z,100078.50
2023-09-18T21:16:18.767Z,100084.34
2023-09-18T21:23:05.259Z,100074.06
2023-09-18T21:29:47.721Z,100075.38
2023-09-18T21:36:30.065Z,100069.56
2023-09-18T21:43:12.626Z,100060.00
2023-09-18T21:49:55.109Z,100052.09
2023-09-18T21:56:37.465Z,100049.41
2023-09-18T22:03:20.003Z,100045.84
2023-09-18T22:10:02.350Z,100027.97
2023-09-18T22:16:45.201Z,100026.13
2023-09-18T22:23:29.347Z,100021.59
2023-09-18T22:30:14.473Z,100011.72
2023-09-18T22:37:01.482Z,100011.13
2023-09-18T22:44:44.079Z,100006.75
2023-09-18T22:52:23.086Z,99998.78
2023-09-18T22:59:06.812Z,99987.31
2023-09-18T23:05:49.374Z,99986.59
2023-09-18T23:12:35.648Z,99980.38
2023-09-18T23:19:20.791Z,99968.94
2023-09-18T23:26:03.438Z,99962.81
2023-09-18T23:33:06.746Z,99959.31
2023-09-18T23:39:50.188Z,99944.31
2023-09-18T23:46:32.902Z,99947.09
2023-09-18T23:53:19.325Z,99947.47
